Time;durP1;ratioP1;P1;durP2;ratioP2;P2;SDS_P1;SDS_P2;PMS_P1;PMS_P2;Temp;Humidity;BMP_temperature;BMP_pressure;BME280_temperature;BME280_humidity;BME280_pressure;Samples;Min_cycle;Max_cycle;Signal;HPM_P1;HPM_P2
2022/05/17 00:01:46;;;;;;;11.90;3.28;;;15.00;99.90;;;;;;5046547;28;20136;-55
2022/05/17 00:04:13;;;;;;;18.00;3.47;;;15.00;99.90;;;;;;5047271;28;20041;-55
2022/05/17 00:06:40;;;;;;;12.45;2.63;;;15.00;99.90;;;;;;5046213;28;20515;-56
2022/05/17 00:09:07;;;;;;;17.02;2.85;;;15.00;99.90;;;;;;5043336;28;20560;-55
2022/05/17 00:11:34;;;;;;;17.23;2.92;;;15.10;99.90;;;;;;5045498;28;20136;-57
2022/05/17 00:14:00;;;;;;;15.88;4.20;;;15.10;99.90;;;;;;5046436;28;20119;-56
2022/05/17 00:16:27;;;;;;;18.85;4.13;;;15.00;99.90;;;;;;5047047;28;20051;-57
2022/05/17 00:18:54;;;;;;;15.93;3.47;;;15.00;99.90;;;;;;5044707;28;20143;-57
2022/05/17 00:21:21;;;;;;;10.27;2.67;;;15.00;99.90;;;;;;5046889;28;20084;-57
2022/05/17 00:23:48;;;;;;;11.38;3.42;;;15.00;99.90;;;;;;5045849;28;20131;-57
2022/05/17 00:26:14;;;;;;;9.18;2.50;;;15.00;99.90;;;;;;5039991;28;20048;-58
2022/05/17 00:28:42;;;;;;;13.40;2.63;;;15.00;99.90;;;;;;4700550;27;10001330;-57
2022/05/17 00:31:09;;;;;;;16.17;4.80;;;15.00;99.90;;;;;;5110936;27;20053;-57
2022/05/17 00:33:36;;;;;;;17.67;2.60;;;14.90;99.90;;;;;;5113225;27;20093;-57
2022/05/17 00:36:03;;;;;;;18.77;3.50;;;14.90;99.90;;;;;;5095132;28;20098;-55
2022/05/17 00:38:30;;;;;;;9.55;2.75;;;14.90;99.90;;;;;;5111099;27;20181;-57
2022/05/17 00:40:57;;;;;;;15.13;3.13;;;14.80;99.90;;;;;;5114407;27;20193;-56
2022/05/17 00:46:30;;;;;;;14.90;3.05;;;14.70;99.90;;;;;;5104499;28;20134;-54
2022/05/17 00:48:56;;;;;;;24.98;2.70;;;14.70;99.90;;;;;;5103846;27;20051;-56
2022/05/17 00:51:26;;;;;;;15.48;3.03;;;14.70;99.90;;;;;;5073882;28;20074;-56
2022/05/17 00:53:54;;;;;;;14.82;2.85;;;14.70;99.90;;;;;;5100548;28;20043;-55
2022/05/17 00:56:22;;;;;;;21.10;2.95;;;14.70;99.90;;;;;;5090912;28;20525;-55
2022/05/17 00:58:50;;;;;;;9.48;3.00;;;14.70;99.90;;;;;;5091089;28;20145;-55
2022/05/17 01:01:25;;;;;;;21.40;3.38;;;14.60;99.90;;;;;;5101105;28;20108;-53
2022/05/17 01:04:08;;;;;;;13.18;2.55;;;14.60;99.90;;;;;;5043009;28;20049;-53
2022/05/17 01:06:51;;;;;;;24.30;2.90;;;14.70;99.90;;;;;;5046114;28;20041;-50
2022/05/17 01:09:19;;;;;;;14.30;2.97;;;14.70;99.90;;;;;;5044776;28;20080;-57
2022/05/17 01:11:45;;;;;;;12.25;2.80;;;14.60;99.90;;;;;;5045595;28;20136;-54
2022/05/17 01:16:58;;;;;;;15.13;2.60;;;14.70;99.90;;;;;;5044980;28;20072;-56
2022/05/17 01:19:25;;;;;;;13.95;2.75;;;14.60;99.90;;;;;;5045918;28;20531;-55
2022/05/17 01:21:52;;;;;;;25.90;3.65;;;14.60;99.90;;;;;;5044492;28;20057;-56
2022/05/17 01:24:19;;;;;;;16.08;3.53;;;14.60;99.90;;;;;;5045815;28;20144;-56
2022/05/17 01:26:49;;;;;;;16.70;3.58;;;14.60;99.90;;;;;;5044453;28;20220;-56
2022/05/17 01:29:16;;;;;;;14.10;3.47;;;14.60;99.90;;;;;;5044851;28;20136;-57
2022/05/17 01:31:43;;;;;;;19.95;3.63;;;14.70;99.90;;;;;;5043083;28;20080;-56
2022/05/17 01:34:13;;;;;;;15.77;2.58;;;14.60;99.90;;;;;;5028742;28;20072;-60
2022/05/17 01:36:40;;;;;;;18.15;2.75;;;14.50;99.90;;;;;;5045311;28;20469;-54
2022/05/17 01:39:07;;;;;;;13.55;3.50;;;14.50;99.90;;;;;;5045850;28;20143;-56
2022/05/17 01:41:34;;;;;;;11.50;2.30;;;14.50;99.90;;;;;;5045479;28;20072;-57
2022/05/17 01:44:00;;;;;;;10.77;2.22;;;14.40;99.90;;;;;;5045968;28;20053;-56
2022/05/17 01:46:27;;;;;;;14.65;2.80;;;14.50;99.90;;;;;;5049614;28;20103;-54
2022/05/17 01:48:54;;;;;;;16.13;3.80;;;14.50;99.90;;;;;;5049545;28;20045;-58
2022/05/17 01:51:21;;;;;;;10.27;2.53;;;14.40;99.90;;;;;;5049276;28;20136;-56
2022/05/17 01:53:48;;;;;;;10.73;2.50;;;14.40;99.90;;;;;;5049168;28;20135;-56
2022/05/17 01:56:15;;;;;;;20.83;2.75;;;14.40;99.90;;;;;;5048812;28;20083;-57
2022/05/17 01:58:42;;;;;;;13.80;2.55;;;14.30;99.90;;;;;;5049248;28;20080;-57
2022/05/17 02:01:09;;;;;;;14.23;2.50;;;14.30;99.90;;;;;;5049291;28;20511;-58
2022/05/17 02:03:36;;;;;;;10.50;2.22;;;14.20;99.90;;;;;;5047771;28;20051;-56
2022/05/17 02:06:03;;;;;;;12.95;2.72;;;14.20;99.90;;;;;;5048962;28;20040;-56
2022/05/17 02:08:30;;;;;;;13.63;2.08;;;14.20;99.90;;;;;;5048104;28;20512;-57
2022/05/17 02:10:56;;;;;;;14.40;2.58;;;14.20;99.90;;;;;;5048032;28;20487;-54
2022/05/17 02:13:23;;;;;;;16.05;2.88;;;14.10;99.90;;;;;;5048984;28;20087;-51
2022/05/17 02:15:50;;;;;;;11.77;2.83;;;14.10;99.90;;;;;;5048821;28;20136;-56
2022/05/17 02:18:16;;;;;;;11.18;2.75;;;14.10;99.90;;;;;;5049020;28;20053;-57
2022/05/17 02:20:43;;;;;;;13.35;3.17;;;14.10;99.90;;;;;;5047365;28;20069;-56
2022/05/17 02:23:10;;;;;;;9.07;2.58;;;14.10;99.90;;;;;;5041788;28;20605;-54
2022/05/17 02:25:37;;;;;;;14.65;2.42;;;14.00;99.90;;;;;;5048767;28;20073;-56
2022/05/17 02:28:05;;;;;;;19.00;3.75;;;13.90;99.90;;;;;;5042830;28;20367;-56
2022/05/17 02:30:32;;;;;;;17.48;2.97;;;13.90;99.90;;;;;;5030876;28;20049;-58
2022/05/17 02:32:59;;;;;;;15.73;2.70;;;13.80;99.90;;;;;;5046956;28;20111;-55
2022/05/17 02:35:25;;;;;;;13.35;2.88;;;13.80;99.90;;;;;;5048698;28;20049;-56
2022/05/17 02:37:52;;;;;;;15.75;2.72;;;13.80;99.90;;;;;;5048016;28;20102;-57
2022/05/17 02:40:19;;;;;;;19.63;3.15;;;13.80;99.90;;;;;;5048795;28;20045;-56
2022/05/17 02:42:46;;;;;;;12.02;3.28;;;13.80;99.90;;;;;;5047340;28;20546;-56
2022/05/17 02:45:12;;;;;;;11.35;3.28;;;13.80;99.90;;;;;;5048873;28;20523;-55
2022/05/17 02:47:39;;;;;;;13.13;2.80;;;13.80;99.90;;;;;;5047873;28;20141;-54
2022/05/17 02:50:09;;;;;;;17.35;3.92;;;13.70;99.90;;;;;;5041043;28;20103;-59
2022/05/17 02:52:36;;;;;;;25.90;6.38;;;13.70;99.90;;;;;;5045778;28;20056;-57
2022/05/17 02:55:04;;;;;;;17.27;4.40;;;13.70;99.90;;;;;;5047613;28;20148;-56
2022/05/17 02:57:30;;;;;;;17.83;4.00;;;13.70;99.90;;;;;;5047547;28;20107;-57
2022/05/17 02:59:57;;;;;;;12.07;4.25;;;13.60;99.90;;;;;;5047854;28;20536;-57
2022/05/17 03:02:25;;;;;;;11.00;2.90;;;13.60;99.90;;;;;;5047687;28;20218;-57
2022/05/17 03:04:52;;;;;;;9.65;3.38;;;13.60;99.90;;;;;;5047461;28;20085;-55
2022/05/17 03:07:19;;;;;;;7.60;2.63;;;13.60;99.90;;;;;;5048090;28;20802;-54
2022/05/17 03:09:46;;;;;;;11.73;3.60;;;13.60;99.90;;;;;;5047039;28;20099;-56
2022/05/17 03:12:12;;;;;;;14.57;3.78;;;13.60;99.90;;;;;;5047188;28;20055;-57
2022/05/17 03:14:39;;;;;;;11.48;3.78;;;13.50;99.90;;;;;;5047222;28;20114;-54
2022/05/17 03:17:12;;;;;;;13.85;4.82;;;13.50;99.90;;;;;;5047892;28;20060;-56
2022/05/17 03:19:39;;;;;;;10.30;2.78;;;13.40;99.90;;;;;;5046015;28;20148;-56
2022/05/17 03:22:06;;;;;;;14.07;2.78;;;13.40;99.90;;;;;;5049682;28;20132;-57
2022/05/17 03:24:33;;;;;;;7.75;2.45;;;13.40;99.90;;;;;;5047208;28;20709;-56
2022/05/17 03:27:20;;;;;;;14.90;3.35;;;13.30;99.90;;;;;;5047887;28;20049;-55
2022/05/17 03:29:47;;;;;;;10.75;3.13;;;13.30;99.90;;;;;;5047022;28;20044;-55
2022/05/17 03:32:13;;;;;;;11.32;2.95;;;13.30;99.90;;;;;;5047745;28;20496;-55
2022/05/17 03:34:40;;;;;;;14.40;3.65;;;13.30;99.90;;;;;;5046562;28;20041;-55
2022/05/17 03:37:07;;;;;;;9.98;2.45;;;13.20;99.90;;;;;;5047663;28;20135;-56
2022/05/17 03:39:34;;;;;;;5.72;2.72;;;13.20;99.90;;;;;;5047526;28;20041;-57
2022/05/17 03:42:00;;;;;;;11.30;3.40;;;13.10;99.90;;;;;;5046660;28;20153;-57
2022/05/17 03:44:27;;;;;;;13.15;3.13;;;13.00;99.90;;;;;;5047370;28;20140;-56
2022/05/17 03:46:54;;;;;;;8.07;3.47;;;13.00;99.90;;;;;;5046958;28;20076;-56
2022/05/17 03:49:58;;;;;;;11.77;2.88;;;13.00;99.90;;;;;;4060922;22;21922;-58
2022/05/17 03:52:26;;;;;;;14.18;3.03;;;13.00;99.90;;;;;;4991059;28;20129;-57
2022/05/17 03:54:56;;;;;;;16.88;3.15;;;13.00;99.90;;;;;;4992735;28;20093;-57
2022/05/17 03:57:26;;;;;;;10.18;3.00;;;13.00;99.90;;;;;;4986724;28;20500;-57
2022/05/17 03:59:54;;;;;;;7.80;2.65;;;13.00;99.90;;;;;;4988927;28;20150;-56
2022/05/17 04:02:22;;;;;;;11.07;2.92;;;13.00;99.90;;;;;;4988531;28;20137;-57
2022/05/17 04:04:52;;;;;;;10.23;3.03;;;13.00;99.90;;;;;;4988173;28;20323;-57
2022/05/17 04:07:19;;;;;;;15.70;4.28;;;13.00;99.90;;;;;;4984505;28;20047;-56
2022/05/17 04:09:46;;;;;;;14.13;3.40;;;13.00;99.90;;;;;;4987259;28;20165;-56
2022/05/17 04:12:13;;;;;;;13.10;3.10;;;12.90;99.90;;;;;;4988089;28;20104;-56
2022/05/17 04:14:40;;;;;;;13.77;3.50;;;12.90;99.90;;;;;;4987721;28;20141;-56
2022/05/17 04:17:06;;;;;;;8.45;2.38;;;12.90;99.90;;;;;;4988200;28;20046;-57
2022/05/17 04:19:35;;;;;;;10.55;4.32;;;12.90;99.90;;;;;;4988000;28;20130;-57
2022/05/17 04:22:01;;;;;;;17.27;5.50;;;12.90;99.90;;;;;;4987310;28;20461;-55
2022/05/17 04:24:28;;;;;;;10.43;3.70;;;12.90;99.90;;;;;;4988216;28;20084;-56
2022/05/17 04:26:55;;;;;;;7.07;2.17;;;12.90;99.90;;;;;;4987917;28;20078;-56
2022/05/17 04:29:21;;;;;;;12.13;2.75;;;12.80;99.90;;;;;;4988485;28;20137;-54
2022/05/17 04:31:48;;;;;;;9.02;2.42;;;12.80;99.90;;;;;;4988531;28;20128;-57
2022/05/17 04:34:15;;;;;;;10.93;3.10;;;12.80;99.90;;;;;;4988706;28;20055;-57
2022/05/17 04:36:42;;;;;;;7.63;2.60;;;12.80;99.90;;;;;;5014104;28;20070;-56
2022/05/17 04:39:09;;;;;;;10.63;2.28;;;12.90;99.90;;;;;;5007160;28;20074;-57
2022/05/17 04:41:35;;;;;;;10.35;2.67;;;13.00;99.90;;;;;;5002379;28;20074;-56
2022/05/17 04:44:02;;;;;;;11.07;3.47;;;13.10;99.90;;;;;;5003515;28;20081;-58
2022/05/17 04:46:29;;;;;;;8.05;2.95;;;13.10;99.90;;;;;;5001745;28;20078;-57
2022/05/17 04:48:56;;;;;;;17.20;4.20;;;13.20;99.90;;;;;;4998107;28;20536;-56
2022/05/17 04:51:22;;;;;;;9.63;3.53;;;13.20;99.90;;;;;;5002460;28;20045;-57
2022/05/17 04:53:49;;;;;;;11.80;3.47;;;13.20;99.90;;;;;;5019074;28;20115;-56
2022/05/17 04:57:08;;;;;;;7.28;2.90;;;13.30;99.90;;;;;;5036757;28;20037;-54
2022/05/17 05:00:17;;;;;;;6.97;2.75;;;13.30;99.90;;;;;;5085174;27;20878;-56
2022/05/17 05:02:44;;;;;;;6.35;2.50;;;13.40;99.90;;;;;;5067324;28;20443;-54
2022/05/17 05:05:11;;;;;;;11.77;2.60;;;13.50;99.90;;;;;;5072242;28;20083;-56
2022/05/17 05:07:38;;;;;;;8.77;2.58;;;13.60;99.90;;;;;;5068616;28;20079;-55
2022/05/17 05:10:05;;;;;;;9.38;2.88;;;13.70;99.90;;;;;;5072757;28;20067;-56
2022/05/17 05:12:33;;;;;;;6.10;2.35;;;13.80;99.90;;;;;;5072715;28;20052;-57
2022/05/17 05:15:00;;;;;;;11.93;2.65;;;13.90;99.90;;;;;;5078355;28;20054;-55
2022/05/17 05:17:31;;;;;;;10.68;2.42;;;14.00;99.90;;;;;;5070190;28;20052;-56
2022/05/17 05:19:58;;;;;;;5.55;2.65;;;14.10;99.90;;;;;;5077870;28;20143;-55
2022/05/17 05:22:25;;;;;;;14.00;3.50;;;14.20;99.90;;;;;;5071279;28;20068;-56
2022/05/17 05:24:52;;;;;;;13.10;3.08;;;14.30;99.90;;;;;;5077092;28;20106;-54
2022/05/17 05:27:19;;;;;;;11.38;2.80;;;14.30;99.90;;;;;;5074302;28;20064;-56
2022/05/17 05:29:46;;;;;;;13.15;2.65;;;14.50;99.90;;;;;;5072174;28;20064;-57
2022/05/17 05:32:12;;;;;;;11.07;2.92;;;14.50;99.90;;;;;;5071030;28;20052;-54
2022/05/17 05:34:39;;;;;;;11.73;2.28;;;14.60;99.90;;;;;;5072650;28;20044;-56
2022/05/17 05:37:06;;;;;;;15.85;4.45;;;14.70;99.90;;;;;;5072301;28;20140;-56
2022/05/17 05:39:32;;;;;;;12.10;3.00;;;14.70;99.90;;;;;;5072340;28;20171;-58
2022/05/17 05:41:59;;;;;;;11.18;2.63;;;14.80;99.90;;;;;;5071466;28;20053;-55
2022/05/17 05:44:26;;;;;;;14.23;3.88;;;14.90;99.90;;;;;;5064689;28;20565;-56
2022/05/17 05:46:53;;;;;;;10.18;2.05;;;15.00;99.90;;;;;;5072265;28;20128;-55
2022/05/17 05:49:20;;;;;;;7.40;2.13;;;15.00;99.90;;;;;;5065139;28;20388;-54
2022/05/17 05:51:47;;;;;;;8.13;2.45;;;15.10;99.90;;;;;;5065934;28;20455;-56
2022/05/17 05:54:14;;;;;;;9.80;2.22;;;15.20;99.90;;;;;;5067479;28;20044;-57
2022/05/17 05:56:41;;;;;;;7.57;1.77;;;15.20;99.90;;;;;;5075183;28;20135;-56
2022/05/17 05:59:08;;;;;;;10.68;2.63;;;15.30;99.90;;;;;;5065374;28;20502;-54
2022/05/17 06:01:35;;;;;;;9.95;2.58;;;15.30;99.90;;;;;;5074214;28;20051;-51
2022/05/17 06:04:02;;;;;;;15.50;2.85;;;15.40;99.90;;;;;;5066420;28;20102;-53
2022/05/17 06:06:30;;;;;;;7.32;1.80;;;15.50;99.90;;;;;;5067595;28;20040;-57
2022/05/17 06:08:57;;;;;;;11.05;2.22;;;15.50;99.90;;;;;;5071302;28;20184;-58
2022/05/17 06:11:23;;;;;;;8.52;2.45;;;15.60;99.90;;;;;;5059447;28;20537;-56
2022/05/17 06:13:50;;;;;;;7.25;1.85;;;15.60;99.90;;;;;;5060145;28;20044;-55
2022/05/17 06:16:17;;;;;;;9.07;1.85;;;15.70;99.90;;;;;;5057432;28;20127;-56
2022/05/17 06:18:44;;;;;;;9.48;2.10;;;15.60;99.90;;;;;;5061259;28;20123;-55
2022/05/17 06:21:11;;;;;;;10.88;2.13;;;15.70;99.90;;;;;;5057460;28;20106;-56
2022/05/17 06:23:38;;;;;;;5.45;1.73;;;15.60;99.90;;;;;;5061418;28;20124;-56
2022/05/17 06:26:06;;;;;;;7.78;1.92;;;15.70;99.90;;;;;;5059734;28;20099;-57
2022/05/17 06:28:33;;;;;;;7.72;2.13;;;15.80;99.90;;;;;;5052404;28;20525;-56
2022/05/17 06:31:00;;;;;;;7.53;2.35;;;15.80;99.90;;;;;;5049844;28;20144;-56
2022/05/17 06:33:29;;;;;;;10.23;3.15;;;15.80;99.90;;;;;;5049089;28;20048;-54
2022/05/17 06:35:56;;;;;;;8.40;2.10;;;15.80;99.90;;;;;;5049353;28;20087;-56
2022/05/17 06:38:22;;;;;;;8.60;1.85;;;15.90;99.90;;;;;;5057929;28;20135;-56
2022/05/17 06:40:50;;;;;;;10.82;2.33;;;15.90;99.90;;;;;;5046639;28;20084;-57
2022/05/17 06:43:16;;;;;;;10.88;2.78;;;15.90;99.90;;;;;;5049014;28;20535;-57
2022/05/17 06:45:43;;;;;;;15.48;2.75;;;16.00;99.90;;;;;;5048006;28;20051;-58
2022/05/17 06:48:10;;;;;;;16.48;2.70;;;16.00;99.90;;;;;;5054384;28;20044;-53
2022/05/17 06:50:37;;;;;;;12.52;2.83;;;16.10;99.90;;;;;;5046803;28;20118;-56
2022/05/17 06:53:05;;;;;;;11.77;2.78;;;16.10;99.90;;;;;;5090579;28;20406;-57
2022/05/17 06:55:32;;;;;;;14.93;2.33;;;16.20;99.90;;;;;;5050811;28;20080;-54
2022/05/17 06:57:59;;;;;;;10.60;2.72;;;16.30;99.90;;;;;;5085935;28;20423;-57
2022/05/17 07:00:26;;;;;;;10.88;3.20;;;16.40;99.90;;;;;;5055615;28;20139;-55
2022/05/17 07:02:53;;;;;;;9.40;2.35;;;16.50;99.90;;;;;;5081828;28;20060;-56
2022/05/17 07:05:20;;;;;;;10.55;2.72;;;16.60;99.90;;;;;;5055544;28;20040;-56
2022/05/17 07:07:47;;;;;;;12.77;2.25;;;16.70;99.90;;;;;;5050708;28;20045;-55
2022/05/17 07:13:09;;;;;;;12.60;2.70;;;16.90;99.90;;;;;;5047254;28;20053;-58
2022/05/17 07:15:36;;;;;;;12.80;3.20;;;16.90;99.90;;;;;;5048435;28;20195;-57
2022/05/17 07:18:04;;;;;;;11.05;2.80;;;17.00;99.90;;;;;;5047543;28;20049;-55
2022/05/17 07:20:31;;;;;;;8.52;2.40;;;17.10;99.90;;;;;;5047425;28;20503;-56
2022/05/17 07:22:57;;;;;;;12.45;3.17;;;17.20;99.90;;;;;;5045760;28;20064;-57
2022/05/17 07:25:24;;;;;;;10.65;2.28;;;17.30;99.90;;;;;;5048064;28;20136;-55
2022/05/17 07:27:51;;;;;;;10.48;2.28;;;17.30;99.90;;;;;;5045623;28;20107;-56
2022/05/17 07:30:18;;;;;;;7.13;2.47;;;17.40;99.90;;;;;;5048143;28;20131;-56
2022/05/17 07:32:46;;;;;;;11.43;3.38;;;17.50;99.90;;;;;;5048249;28;20493;-52
2022/05/17 07:35:13;;;;;;;10.38;2.38;;;17.60;99.90;;;;;;5048326;28;20049;-56
2022/05/17 07:37:40;;;;;;;9.60;2.30;;;17.70;99.90;;;;;;5047017;28;20076;-55
2022/05/17 07:40:08;;;;;;;9.13;1.92;;;17.80;99.90;;;;;;5047657;28;20041;-54
2022/05/17 07:42:36;;;;;;;11.20;2.28;;;17.80;99.90;;;;;;5030043;28;20044;-56
2022/05/17 07:45:04;;;;;;;9.73;1.67;;;17.90;99.90;;;;;;5049358;28;20619;-54
2022/05/17 07:47:30;;;;;;;7.53;1.65;;;17.90;99.90;;;;;;5048784;28;20099;-56
2022/05/17 07:49:57;;;;;;;4.88;1.40;;;17.90;99.90;;;;;;5048233;28;20080;-56
2022/05/17 07:52:24;;;;;;;8.38;2.53;;;17.80;99.90;;;;;;5046851;28;20124;-54
2022/05/17 07:54:50;;;;;;;6.40;1.58;;;17.80;99.90;;;;;;5048200;28;20045;-57
2022/05/17 07:57:19;;;;;;;5.47;1.70;;;17.90;99.90;;;;;;5047440;28;20144;-53
2022/05/17 07:59:46;;;;;;;4.40;1.67;;;17.90;99.90;;;;;;5048726;28;20592;-55
2022/05/17 08:02:13;;;;;;;7.35;1.58;;;18.00;99.90;;;;;;5051954;28;20446;-57
2022/05/17 08:04:40;;;;;;;8.50;1.60;;;18.10;99.90;;;;;;5050724;28;20075;-53
2022/05/17 08:07:08;;;;;;;4.43;1.80;;;18.10;99.90;;;;;;5047050;28;20498;-56
2022/05/17 08:09:36;;;;;;;9.35;1.80;;;18.20;99.90;;;;;;5045649;28;20047;-55
2022/05/17 08:12:06;;;;;;;6.40;1.63;;;18.30;99.90;;;;;;5047209;28;20128;-57
2022/05/17 08:14:35;;;;;;;11.05;2.45;;;18.30;99.90;;;;;;5047445;28;20128;-56
2022/05/17 08:17:02;;;;;;;5.20;1.98;;;18.40;99.90;;;;;;5054660;28;20127;-56
2022/05/17 08:19:29;;;;;;;9.30;1.70;;;18.40;99.90;;;;;;5051769;28;20083;-55
2022/05/17 08:21:56;;;;;;;7.63;1.63;;;18.40;99.90;;;;;;5056984;28;20072;-57
2022/05/17 08:24:22;;;;;;;4.60;1.40;;;18.40;99.90;;;;;;5050087;28;20041;-57
2022/05/17 08:29:35;;;;;;;10.23;2.40;;;18.50;99.90;;;;;;5043677;28;20048;-56
2022/05/17 08:34:47;;;;;;;5.57;1.77;;;18.60;99.90;;;;;;5048516;28;20514;-56
2022/05/17 08:37:13;;;;;;;7.63;1.40;;;18.70;99.90;;;;;;5059687;28;20586;-56
2022/05/17 08:39:40;;;;;;;6.38;1.58;;;18.80;99.90;;;;;;5051054;28;20081;-56
2022/05/17 08:42:28;;;;;;;14.00;1.65;;;18.90;99.90;;;;;;5061117;28;20048;-52
2022/05/17 08:44:57;;;;;;;13.02;3.15;;;19.00;99.90;;;;;;5051721;28;20467;-56
2022/05/17 08:47:24;;;;;;;6.63;1.70;;;19.00;99.90;;;;;;5069723;28;20053;-55
2022/05/17 08:50:13;;;;;;;10.25;2.42;;;19.00;99.90;;;;;;5053756;28;20044;-56
2022/05/17 08:52:40;;;;;;;5.40;1.23;;;19.10;99.90;;;;;;5055645;28;20071;-54
2022/05/17 08:55:32;;;;;;;7.13;1.45;;;19.20;99.90;;;;;;5045956;28;20067;-55
2022/05/17 08:58:00;;;;;;;5.20;1.35;;;19.30;99.90;;;;;;5042013;28;20076;-56
2022/05/17 09:00:38;;;;;;;3.67;1.02;;;19.40;99.90;;;;;;5044643;28;20080;-56
2022/05/17 09:03:32;;;;;;;5.80;1.48;;;19.40;99.90;;;;;;5049969;28;20068;-56
2022/05/17 09:06:35;;;;;;;8.95;1.67;;;19.50;99.90;;;;;;5042963;28;20088;-57
2022/05/17 09:09:04;;;;;;;3.50;1.20;;;19.60;99.90;;;;;;4996240;28;20129;-56
2022/05/17 09:11:38;;;;;;;6.32;1.65;;;19.70;99.90;;;;;;5052352;28;20679;-55
2022/05/17 09:14:16;;;;;;;6.07;1.90;;;19.80;99.90;;;;;;5053141;28;20135;-54
2022/05/17 09:16:57;;;;;;;10.55;1.67;;;19.90;99.90;;;;;;5048021;28;20041;-56
2022/05/17 09:19:25;;;;;;;4.22;1.33;;;20.00;99.90;;;;;;5044391;28;20053;-57
2022/05/17 09:21:53;;;;;;;12.48;1.45;;;20.00;99.90;;;;;;5048620;28;20072;-56
2022/05/17 09:24:21;;;;;;;5.43;1.58;;;20.10;99.90;;;;;;5055101;28;20059;-55
2022/05/17 09:26:51;;;;;;;7.90;2.28;;;20.20;99.90;;;;;;5056096;28;20072;-56
2022/05/17 09:29:21;;;;;;;8.15;1.50;;;20.20;99.90;;;;;;5057569;28;20049;-54
2022/05/17 09:31:59;;;;;;;5.75;1.25;;;20.30;99.90;;;;;;5051020;28;20478;-57
2022/05/17 09:34:35;;;;;;;8.25;2.95;;;20.40;99.90;;;;;;5056725;28;20491;-57
2022/05/17 09:37:32;;;;;;;6.65;2.10;;;20.50;99.90;;;;;;5052567;28;20090;-56
2022/05/17 09:40:01;;;;;;;5.32;1.20;;;20.60;99.90;;;;;;5045770;28;20060;-56
2022/05/17 09:42:42;;;;;;;7.13;1.10;;;20.70;99.90;;;;;;5047356;28;20481;-54
2022/05/17 09:45:17;;;;;;;10.98;1.60;;;20.80;99.90;;;;;;5045011;28;20179;-56
2022/05/17 09:47:57;;;;;;;10.18;1.42;;;20.90;99.90;;;;;;5049383;28;20051;-57
2022/05/17 09:53:17;;;;;;;6.72;1.35;;;21.10;99.90;;;;;;5056508;28;20114;-56
2022/05/17 09:55:48;;;;;;;7.05;1.90;;;21.30;99.90;;;;;;5056863;28;20495;-54
2022/05/17 09:58:36;;;;;;;3.60;1.40;;;21.60;99.90;;;;;;5056565;28;20140;-57
2022/05/17 10:01:20;;;;;;;4.60;1.08;;;21.90;99.90;;;;;;5046778;28;20057;-55
2022/05/17 10:04:01;;;;;;;6.00;1.40;;;22.30;99.10;;;;;;5049473;28;20045;-57
2022/05/17 10:06:34;;;;;;;5.63;2.00;;;22.60;97.30;;;;;;5091036;28;20049;-56
2022/05/17 10:09:03;;;;;;;5.18;1.52;;;22.80;98.10;;;;;;5050286;28;20118;-57
2022/05/17 10:11:40;;;;;;;2.20;0.98;;;23.00;99.00;;;;;;5057091;28;20128;-54
2022/05/17 10:14:30;;;;;;;5.57;2.13;;;23.20;96.70;;;;;;5049224;28;20049;-56
2022/05/17 10:17:12;;;;;;;7.10;1.52;;;23.10;93.50;;;;;;5072034;28;20069;-57
2022/05/17 10:19:46;;;;;;;5.05;1.55;;;23.10;95.90;;;;;;5050002;28;20072;-57
2022/05/17 10:22:27;;;;;;;6.10;1.35;;;23.40;96.90;;;;;;5048584;28;20448;-55
2022/05/17 10:25:04;;;;;;;5.65;1.42;;;23.40;94.80;;;;;;5051718;28;20049;-56
2022/05/17 10:27:40;;;;;;;8.85;1.95;;;23.70;94.50;;;;;;5054395;28;20045;-56
2022/05/17 10:30:19;;;;;;;3.38;1.15;;;24.10;93.80;;;;;;5080558;28;20044;-54
2022/05/17 10:32:52;;;;;;;8.27;1.13;;;24.20;91.70;;;;;;5051058;28;20068;-57
2022/05/17 10:35:42;;;;;;;3.83;1.05;;;24.50;93.80;;;;;;5083346;28;20057;-56
2022/05/17 10:38:18;;;;;;;12.82;1.48;;;24.70;92.50;;;;;;5051187;28;20069;-57
2022/05/17 10:40:46;;;;;;;14.30;1.95;;;24.70;92.70;;;;;;5053927;28;20056;-54
2022/05/17 10:43:25;;;;;;;6.32;1.20;;;24.70;92.40;;;;;;5051553;28;20049;-56
2022/05/17 10:46:08;;;;;;;10.20;2.15;;;24.80;90.20;;;;;;5058910;28;20477;-57
2022/05/17 10:48:44;;;;;;;4.63;1.20;;;24.40;89.00;;;;;;5049108;28;20060;-56
2022/05/17 10:51:30;;;;;;;6.18;1.50;;;24.10;90.80;;;;;;5043432;28;20344;-57
2022/05/17 10:54:27;;;;;;;4.95;1.08;;;23.90;88.40;;;;;;5044431;28;20087;-56
2022/05/17 10:57:20;;;;;;;9.43;1.92;;;23.70;89.80;;;;;;5054701;28;20048;-57
2022/05/17 11:00:18;;;;;;;5.60;1.23;;;23.50;90.20;;;;;;5023046;28;20091;-54
2022/05/17 11:03:13;;;;;;;5.70;1.00;;;23.40;90.40;;;;;;5048735;28;20048;-57
2022/05/17 11:05:58;;;;;;;4.20;1.02;;;23.30;91.00;;;;;;5051414;28;20075;-56
2022/05/17 11:08:33;;;;;;;7.05;1.30;;;23.30;91.90;;;;;;5049076;28;20721;-56
2022/05/17 11:11:22;;;;;;;10.75;1.30;;;23.20;91.10;;;;;;5048830;28;20049;-56
2022/05/17 11:14:23;;;;;;;8.63;1.48;;;23.10;91.90;;;;;;5052984;28;20123;-56
2022/05/17 11:17:36;;;;;;;6.95;1.15;;;23.10;91.50;;;;;;5042498;28;20124;-57
2022/05/17 11:20:32;;;;;;;5.47;1.95;;;23.00;92.00;;;;;;5046590;28;20138;-54
2022/05/17 11:22:58;;;;;;;4.03;1.52;;;23.00;92.80;;;;;;5066935;28;20076;-56
2022/05/17 11:25:36;;;;;;;5.55;1.20;;;23.10;93.20;;;;;;5048749;28;20091;-57
2022/05/17 11:28:22;;;;;;;5.40;1.30;;;23.10;92.60;;;;;;5049216;28;20049;-56
2022/05/17 11:31:00;;;;;;;8.10;2.08;;;23.10;93.40;;;;;;5057458;28;20682;-60
2022/05/17 11:33:34;;;;;;;9.43;1.52;;;23.20;93.40;;;;;;5050582;28;20048;-58
2022/05/17 11:36:05;;;;;;;6.00;1.10;;;23.30;92.90;;;;;;5042286;28;20052;-56
2022/05/17 11:38:32;;;;;;;10.15;1.77;;;23.30;93.40;;;;;;5055401;28;20044;-54
2022/05/17 11:41:00;;;;;;;4.95;1.98;;;23.40;93.50;;;;;;5050348;28;20495;-54
2022/05/17 11:43:50;;;;;;;6.15;1.45;;;23.30;93.10;;;;;;5052933;28;20710;-57
2022/05/17 11:46:43;;;;;;;5.80;1.20;;;23.20;91.80;;;;;;5042320;28;20118;-56
2022/05/17 11:49:12;;;;;;;11.50;3.07;;;23.10;91.50;;;;;;5047182;28;20124;-58
2022/05/17 11:51:59;;;;;;;6.45;1.95;;;23.20;92.20;;;;;;5053284;28;20133;-54
2022/05/17 11:54:48;;;;;;;3.65;1.50;;;23.30;92.40;;;;;;5047149;28;20055;-54
2022/05/17 11:57:18;;;;;;;6.10;1.35;;;23.40;91.50;;;;;;5045042;28;20537;-56
2022/05/17 12:00:06;;;;;;;6.35;1.42;;;23.50;92.70;;;;;;5041224;28;20134;-58
2022/05/17 12:02:46;;;;;;;7.60;1.40;;;23.60;91.30;;;;;;5054284;28;20052;-50
2022/05/17 12:05:47;;;;;;;5.55;1.45;;;23.70;92.10;;;;;;5055973;28;20131;-55
2022/05/17 12:08:32;;;;;;;3.35;1.42;;;23.70;91.30;;;;;;5052133;28;20048;-57
2022/05/17 12:11:04;;;;;;;3.58;0.98;;;23.70;91.20;;;;;;5048710;28;20044;-55
2022/05/17 12:13:32;;;;;;;4.60;1.17;;;23.60;92.10;;;;;;5076235;28;20068;-56
2022/05/17 12:16:00;;;;;;;6.22;1.45;;;23.70;92.60;;;;;;5038755;28;20559;-56
2022/05/17 12:18:43;;;;;;;5.25;1.42;;;23.90;92.50;;;;;;5049623;28;20040;-56
2022/05/17 12:21:34;;;;;;;3.22;1.23;;;24.00;91.50;;;;;;5062921;28;20053;-56
2022/05/17 12:24:26;;;;;;;2.53;0.93;;;24.20;90.00;;;;;;5079371;28;20049;-56
2022/05/17 12:27:14;;;;;;;4.28;1.23;;;24.10;91.00;;;;;;5051641;28;20055;-55
2022/05/17 12:32:45;;;;;;;6.95;1.70;;;24.10;91.70;;;;;;5041507;28;20514;-56
2022/05/17 12:35:12;;;;;;;7.70;1.50;;;24.20;91.70;;;;;;5049560;28;20523;-55
2022/05/17 12:37:43;;;;;;;3.63;1.02;;;24.40;90.80;;;;;;5047420;28;20045;-56
2022/05/17 12:43:06;;;;;;;4.45;1.02;;;24.70;91.20;;;;;;5041726;28;20080;-57
2022/05/17 12:45:36;;;;;;;2.05;0.90;;;24.80;91.20;;;;;;5085146;28;20040;-57
2022/05/17 12:48:14;;;;;;;5.95;1.25;;;24.80;90.60;;;;;;5047232;28;20045;-56
2022/05/17 12:50:48;;;;;;;5.03;1.30;;;24.80;89.50;;;;;;5078261;28;20045;-56
2022/05/17 12:53:23;;;;;;;2.85;1.10;;;24.80;90.40;;;;;;5072288;28;20068;-57
2022/05/17 12:56:06;;;;;;;6.53;1.58;;;24.90;90.60;;;;;;5079238;28;20558;-56
2022/05/17 12:58:47;;;;;;;5.72;1.30;;;24.90;88.30;;;;;;5048709;28;20087;-57
2022/05/17 13:01:14;;;;;;;5.32;0.98;;;24.90;90.80;;;;;;5054911;28;20134;-57
2022/05/17 13:03:43;;;;;;;8.32;1.77;;;25.10;90.90;;;;;;5050387;28;20065;-56
2022/05/17 13:06:10;;;;;;;5.15;0.98;;;25.20;90.50;;;;;;5078518;28;20083;-54
2022/05/17 13:08:37;;;;;;;3.30;1.20;;;25.20;90.90;;;;;;5049345;28;20120;-51
2022/05/17 13:11:24;;;;;;;3.42;1.23;;;25.30;90.50;;;;;;5052652;28;20053;-55
2022/05/17 13:14:08;;;;;;;6.30;1.55;;;25.40;88.10;;;;;;5050178;28;20047;-52
2022/05/17 13:16:37;;;;;;;3.28;0.77;;;25.40;87.90;;;;;;5053219;28;20132;-53
2022/05/17 13:19:05;;;;;;;4.32;1.17;;;25.40;90.20;;;;;;5045806;28;20128;-54
2022/05/17 13:21:39;;;;;;;5.88;1.50;;;25.40;90.00;;;;;;5073075;28;20076;-56
2022/05/17 13:24:27;;;;;;;4.05;1.10;;;25.40;86.50;;;;;;5051695;28;20314;-55
2022/05/17 13:27:13;;;;;;;4.22;1.15;;;25.40;89.30;;;;;;5071286;28;20128;-54